createdAt,value
2023-03-17T00:01:51.256Z,8.32
2023-03-17T00:04:19.377Z,7.47
2023-03-17T00:06:46.566Z,8.11
2023-03-17T00:09:18.734Z,8.36
2023-03-17T00:11:46.609Z,8.35
2023-03-17T00:14:13.524Z,8.21
2023-03-17T00:16:43.720Z,7.88
2023-03-17T00:19:36.626Z,8.38
2023-03-17T00:22:06.019Z,7.74
2023-03-17T00:24:33.590Z,7.83
2023-03-17T00:27:00.690Z,7.76
2023-03-17T00:29:27.942Z,7.71
2023-03-17T00:31:57.004Z,7.63
2023-03-17T00:34:23.596Z,8.00
2023-03-17T00:36:51.264Z,7.56
2023-03-17T00:39:18.565Z,8.01
2023-03-17T00:44:12.529Z,7.97
2023-03-17T00:46:39.437Z,7.51
2023-03-17T00:49:21.536Z,8.12
2023-03-17T00:51:49.637Z,7.55
2023-03-17T00:54:18.188Z,8.03
2023-03-17T00:56:45.573Z,7.82
2023-03-17T00:59:20.619Z,7.46
2023-03-17T01:01:49.036Z,7.99
2023-03-17T01:04:15.791Z,7.92
2023-03-17T01:06:43.152Z,7.54
2023-03-17T01:09:16.388Z,8.00
2023-03-17T01:11:44.076Z,7.72
2023-03-17T01:14:13.163Z,7.78
2023-03-17T01:16:40.796Z,7.58
2023-03-17T01:19:07.549Z,7.39
2023-03-17T01:21:34.545Z,7.78
2023-03-17T01:24:01.526Z,7.27
2023-03-17T01:26:28.480Z,7.33
2023-03-17T01:28:55.179Z,7.31
2023-03-17T01:31:23.398Z,7.72
2023-03-17T01:33:51.235Z,7.09
2023-03-17T01:36:17.979Z,7.70
2023-03-17T01:38:47.928Z,7.65
2023-03-17T01:41:14.497Z,7.56
2023-03-17T01:43:41.564Z,6.99
2023-03-17T01:46:14.115Z,7.50
2023-03-17T01:48:42.679Z,7.51
2023-03-17T01:51:13.677Z,7.50
2023-03-17T01:53:41.870Z,6.76
2023-03-17T01:56:08.451Z,7.36
2023-03-17T01:58:35.618Z,6.90
2023-03-17T02:01:02.438Z,7.20
2023-03-17T02:03:29.789Z,6.88
2023-03-17T02:05:57.948Z,7.41
2023-03-17T02:08:24.596Z,7.54
2023-03-17T02:10:52.359Z,7.45
2023-03-17T02:13:19.136Z,7.03
2023-03-17T02:15:52.897Z,7.34
2023-03-17T02:18:21.758Z,7.24
2023-03-17T02:20:48.259Z,7.23
2023-03-17T02:23:19.701Z,7.20
2023-03-17T02:25:47.403Z,7.06
2023-03-17T02:28:29.907Z,6.90
2023-03-17T02:30:57.766Z,6.62
2023-03-17T02:33:24.571Z,7.01
2023-03-17T02:35:54.925Z,6.58
2023-03-17T02:38:21.853Z,6.58
2023-03-17T02:40:48.595Z,6.97
2023-03-17T02:43:15.166Z,7.05
2023-03-17T02:45:41.772Z,7.10
2023-03-17T02:48:11.942Z,7.28
2023-03-17T02:50:38.603Z,6.74
2023-03-17T02:53:05.225Z,6.80
2023-03-17T02:55:31.824Z,7.37
2023-03-17T02:57:58.848Z,7.28
2023-03-17T03:00:26.477Z,7.39
2023-03-17T03:02:53.121Z,7.16
2023-03-17T03:05:20.089Z,7.49
2023-03-17T03:07:46.920Z,6.96
2023-03-17T03:10:13.657Z,7.34
2023-03-17T03:12:40.321Z,6.87
2023-03-17T03:15:07.423Z,6.98
2023-03-17T03:17:34.018Z,7.31
2023-03-17T03:20:00.608Z,7.50
2023-03-17T03:22:27.169Z,7.36
2023-03-17T03:24:53.728Z,7.55
2023-03-17T03:27:20.322Z,7.26
2023-03-17T03:29:46.959Z,7.46
2023-03-17T03:32:13.657Z,6.93
2023-03-17T03:34:40.185Z,7.41
2023-03-17T03:37:06.877Z,6.72
2023-03-17T03:39:33.427Z,7.44
2023-03-17T03:41:59.925Z,7.35
2023-03-17T03:44:26.509Z,7.50
2023-03-17T03:46:53.082Z,7.45
2023-03-17T03:49:19.694Z,7.11
2023-03-17T03:51:46.282Z,7.34
2023-03-17T03:54:12.777Z,6.72
2023-03-17T03:56:39.259Z,6.59
2023-03-17T03:59:06.097Z,6.68
2023-03-17T04:01:32.754Z,7.04
2023-03-17T04:03:59.345Z,6.98
2023-03-17T04:06:25.932Z,6.55
2023-03-17T04:08:52.512Z,6.24
2023-03-17T04:11:19.139Z,6.67
2023-03-17T04:13:45.792Z,6.89
2023-03-17T04:16:12.453Z,6.85
2023-03-17T04:18:39.166Z,6.70
2023-03-17T04:21:06.156Z,5.96
2023-03-17T04:23:32.737Z,6.63
2023-03-17T04:25:59.372Z,6.62
2023-03-17T04:28:25.940Z,6.09
2023-03-17T04:30:52.485Z,6.44
2023-03-17T04:33:20.280Z,6.59
2023-03-17T04:35:46.941Z,6.10
2023-03-17T04:38:13.609Z,6.60
2023-03-17T04:40:40.664Z,6.48
2023-03-17T04:43:07.225Z,6.53
2023-03-17T04:45:33.878Z,6.12
2023-03-17T04:48:00.522Z,6.63
2023-03-17T04:50:27.129Z,6.30
2023-03-17T04:52:53.786Z,6.75
2023-03-17T04:55:21.044Z,6.23
2023-03-17T04:57:47.641Z,6.76
2023-03-17T05:00:15.477Z,6.35
2023-03-17T05:02:42.219Z,6.79
2023-03-17T05:05:09.884Z,6.88
2023-03-17T05:07:36.479Z,6.76
2023-03-17T05:10:03.540Z,6.26
2023-03-17T05:12:30.373Z,6.93
2023-03-17T05:14:56.962Z,6.94
2023-03-17T05:17:23.530Z,6.84
2023-03-17T05:19:50.234Z,6.84
2023-03-17T05:22:16.922Z,7.00
2023-03-17T05:24:43.661Z,6.95
2023-03-17T05:27:10.404Z,6.68
2023-03-17T05:29:37.068Z,6.78
2023-03-17T05:32:03.933Z,7.07
2023-03-17T05:34:31.163Z,6.90
2023-03-17T05:36:57.839Z,6.33
2023-03-17T05:39:24.345Z,6.77
2023-03-17T05:41:51.484Z,6.82
2023-03-17T05:44:18.074Z,6.90
2023-03-17T05:46:44.780Z,6.87
2023-03-17T05:49:11.437Z,6.88
2023-03-17T05:51:38.092Z,6.30
2023-03-17T05:54:04.847Z,6.35
2023-03-17T05:56:33.723Z,6.65
2023-03-17T05:59:01.820Z,6.47
2023-03-17T06:01:29.017Z,6.06
2023-03-17T06:03:55.765Z,6.14
2023-03-17T06:06:22.470Z,6.14
2023-03-17T06:08:48.972Z,6.50
2023-03-17T06:11:15.930Z,6.11
2023-03-17T06:13:42.558Z,6.74
2023-03-17T06:16:09.742Z,6.23
2023-03-17T06:18:36.695Z,6.90
2023-03-17T06:21:03.359Z,6.33
2023-03-17T06:23:29.929Z,6.62
2023-03-17T06:25:56.897Z,6.36
2023-03-17T06:28:24.006Z,6.33
2023-03-17T06:30:50.883Z,6.67
2023-03-17T06:33:19.223Z,6.91
2023-03-17T06:35:46.872Z,7.04
2023-03-17T06:38:13.489Z,6.58
2023-03-17T06:40:40.090Z,7.23
2023-03-17T06:43:07.507Z,7.07
2023-03-17T06:45:34.620Z,7.41
2023-03-17T06:48:02.228Z,7.01
2023-03-17T06:50:29.008Z,7.40
2023-03-17T06:52:55.964Z,7.58
2023-03-17T06:55:22.576Z,7.96
2023-03-17T06:57:51.061Z,7.82
2023-03-17T07:00:19.511Z,7.43
2023-03-17T07:02:47.250Z,7.87
2023-03-17T07:05:13.965Z,8.32
2023-03-17T07:07:41.025Z,7.87
2023-03-17T07:10:10.272Z,8.56
2023-03-17T07:12:37.695Z,8.16
2023-03-17T07:15:04.808Z,8.55
2023-03-17T07:17:31.320Z,8.93
2023-03-17T07:19:57.893Z,9.00
2023-03-17T07:22:24.600Z,8.77
2023-03-17T07:24:51.869Z,9.52
2023-03-17T07:27:20.247Z,9.70
2023-03-17T07:29:48.924Z,9.44
2023-03-17T07:32:15.439Z,10.17
2023-03-17T07:34:42.080Z,10.40
2023-03-17T07:37:09.060Z,10.25
2023-03-17T07:39:36.401Z,10.83
2023-03-17T07:42:02.961Z,10.61
2023-03-17T07:44:30.385Z,10.85
2023-03-17T07:46:57.395Z,11.20
2023-03-17T07:49:39.891Z,10.64
2023-03-17T07:52:09.406Z,11.43
2023-03-17T07:54:37.594Z,11.22
2023-03-17T07:57:05.086Z,11.44
2023-03-17T07:59:32.698Z,11.69
2023-03-17T08:02:01.258Z,11.92
2023-03-17T08:04:28.522Z,12.18
2023-03-17T08:06:55.149Z,11.53
2023-03-17T08:09:24.903Z,11.61
2023-03-17T08:11:51.570Z,11.71
2023-03-17T08:14:18.466Z,12.20
2023-03-17T08:16:45.232Z,12.19
2023-03-17T08:19:11.889Z,11.99
2023-03-17T08:21:38.618Z,12.40
2023-03-17T08:24:05.889Z,12.30
2023-03-17T08:26:32.608Z,12.18
2023-03-17T08:28:59.407Z,12.54
2023-03-17T08:31:26.129Z,12.69
2023-03-17T08:33:54.114Z,12.77
2023-03-17T08:36:21.510Z,12.74
2023-03-17T08:38:48.706Z,12.37
2023-03-17T08:41:19.079Z,12.42
2023-03-17T08:43:46.896Z,12.74
2023-03-17T08:46:19.759Z,12.84
2023-03-17T08:48:48.676Z,13.42
2023-03-17T08:51:18.437Z,13.73
2023-03-17T08:53:46.370Z,13.50
2023-03-17T08:56:14.177Z,14.04
2023-03-17T08:58:42.525Z,14.32
2023-03-17T09:01:10.868Z,14.05
2023-03-17T09:03:39.298Z,14.30
2023-03-17T09:06:09.864Z,14.22
2023-03-17T09:08:39.928Z,14.38
2023-03-17T09:11:08.389Z,14.38
2023-03-17T09:13:37.227Z,14.74
2023-03-17T09:16:03.960Z,14.93
2023-03-17T09:18:32.936Z,14.83
2023-03-17T09:21:00.305Z,15.40
2023-03-17T09:23:26.993Z,15.09
2023-03-17T09:25:53.714Z,14.75
2023-03-17T09:28:20.224Z,15.62
2023-03-17T09:30:46.949Z,15.71
2023-03-17T09:33:14.469Z,16.02
2023-03-17T09:35:41.512Z,16.35
2023-03-17T09:38:09.592Z,15.92
2023-03-17T09:40:44.430Z,16.35
2023-03-17T09:43:32.576Z,16.85
2023-03-17T09:46:18.826Z,17.16
2023-03-17T09:48:49.862Z,17.50
2023-03-17T09:51:19.741Z,17.08
2023-03-17T09:53:59.833Z,17.17
2023-03-17T09:56:34.909Z,17.06
2023-03-17T09:59:23.280Z,17.51
2023-03-17T10:01:50.352Z,17.47
2023-03-17T10:04:18.937Z,16.72
2023-03-17T10:06:47.435Z,16.73
2023-03-17T10:09:27.151Z,16.44
2023-03-17T10:12:07.393Z,16.35
2023-03-17T10:14:38.279Z,16.89
2023-03-17T10:17:16.674Z,16.96
2023-03-17T10:20:01.026Z,16.87
2023-03-17T10:22:39.664Z,16.96
2023-03-17T10:25:15.818Z,17.43
2023-03-17T10:27:48.705Z,18.08
2023-03-17T10:30:18.625Z,18.31
2023-03-17T10:32:46.531Z,17.78
2023-03-17T10:35:15.519Z,17.49
2023-03-17T10:37:44.018Z,17.04
2023-03-17T10:40:37.171Z,16.91
2023-03-17T10:43:08.607Z,16.90
2023-03-17T10:45:42.819Z,16.85
2023-03-17T10:48:17.372Z,17.11
2023-03-17T10:50:48.598Z,17.35
2023-03-17T10:53:30.122Z,17.92
2023-03-17T10:56:08.656Z,18.42
2023-03-17T10:58:39.370Z,18.43
2023-03-17T11:01:16.357Z,19.08
2023-03-17T11:03:43.138Z,19.11
2023-03-17T11:06:15.831Z,19.05
2023-03-17T11:08:49.240Z,19.09
2023-03-17T11:11:34.520Z,20.13
2023-03-17T11:14:13.404Z,21.65
2023-03-17T11:16:55.482Z,23.20
2023-03-17T11:19:37.438Z,23.68
2023-03-17T11:22:20.778Z,24.59
2023-03-17T11:25:04.289Z,24.94
2023-03-17T11:27:38.867Z,25.34
2023-03-17T11:31:00.131Z,25.68
2023-03-17T11:33:42.468Z,25.69
2023-03-17T11:36:43.452Z,23.96
2023-03-17T11:39:15.986Z,23.23
2023-03-17T11:41:51.007Z,23.68
2023-03-17T11:44:32.892Z,23.93
2023-03-17T11:47:18.393Z,24.85
2023-03-17T11:49:51.436Z,25.16
2023-03-17T11:52:22.020Z,24.26
2023-03-17T11:55:07.764Z,22.87
2023-03-17T11:57:47.138Z,23.03
2023-03-17T12:00:20.657Z,24.13
2023-03-17T12:03:07.374Z,25.04
2023-03-17T12:05:35.570Z,26.35
2023-03-17T12:08:12.057Z,27.32
2023-03-17T12:10:52.234Z,27.03
2023-03-17T12:13:28.024Z,27.15
2023-03-17T12:16:06.082Z,26.21
2023-03-17T12:18:46.280Z,26.51
2023-03-17T12:21:27.423Z,27.61
2023-03-17T12:24:06.907Z,26.96
2023-03-17T12:27:03.644Z,25.78
2023-03-17T12:29:57.675Z,24.90
2023-03-17T12:32:45.864Z,25.25
2023-03-17T12:35:29.897Z,25.01
2023-03-17T12:37:59.960Z,25.32
2023-03-17T12:40:39.420Z,25.24
2023-03-17T12:43:24.334Z,25.94
2023-03-17T12:46:14.309Z,25.85
2023-03-17T12:48:58.060Z,26.08
2023-03-17T12:51:33.789Z,25.63
2023-03-17T12:54:00.915Z,25.62
2023-03-17T12:56:30.288Z,25.91
2023-03-17T12:59:06.623Z,25.71
2023-03-17T13:01:43.536Z,25.43
2023-03-17T13:04:27.322Z,26.19
2023-03-17T13:07:18.186Z,26.38
2023-03-17T13:09:46.924Z,25.27
2023-03-17T13:12:34.918Z,24.91
2023-03-17T13:15:01.792Z,25.02
2023-03-17T13:17:31.221Z,24.52
2023-03-17T13:20:07.722Z,23.68
2023-03-17T13:22:40.819Z,23.32
2023-03-17T13:25:26.649Z,23.19
2023-03-17T13:27:53.405Z,22.76
2023-03-17T13:30:24.283Z,23.51
2023-03-17T13:33:02.491Z,23.88
2023-03-17T13:35:51.672Z,23.96
2023-03-17T13:38:39.853Z,23.59
2023-03-17T13:41:18.488Z,23.45
2023-03-17T13:44:05.743Z,23.60
2023-03-17T13:46:41.619Z,23.40
2023-03-17T13:49:19.471Z,23.12
2023-03-17T13:52:03.396Z,22.92
2023-03-17T13:54:40.594Z,22.73
2023-03-17T13:57:26.266Z,22.48
2023-03-17T14:00:00.720Z,21.96
2023-03-17T14:02:31.729Z,21.87
2023-03-17T14:05:07.558Z,21.62
2023-03-17T14:07:47.993Z,21.81
2023-03-17T14:10:24.370Z,22.04
2023-03-17T14:12:57.078Z,21.99
2023-03-17T14:15:33.071Z,21.96
2023-03-17T14:18:10.913Z,21.88
2023-03-17T14:20:37.589Z,22.46
2023-03-17T14:23:06.566Z,22.38
2023-03-17T14:25:36.277Z,21.90
2023-03-17T14:28:09.382Z,21.99
2023-03-17T14:30:38.488Z,22.00
2023-03-17T14:33:28.163Z,21.69
2023-03-17T14:35:58.558Z,21.48
2023-03-17T14:38:27.650Z,21.60
2023-03-17T14:41:06.850Z,21.60
2023-03-17T14:43:36.009Z,21.52
2023-03-17T14:46:05.705Z,21.49
2023-03-17T14:48:35.669Z,21.17
2023-03-17T14:51:07.944Z,21.47
2023-03-17T14:53:39.137Z,21.11
2023-03-17T14:56:06.196Z,20.74
2023-03-17T14:58:44.180Z,20.69
2023-03-17T15:01:18.491Z,21.09
2023-03-17T15:04:05.897Z,21.08
2023-03-17T15:06:36.832Z,20.67
2023-03-17T15:09:18.463Z,20.68
2023-03-17T15:11:46.049Z,20.34
2023-03-17T15:14:36.566Z,20.73
2023-03-17T15:17:06.472Z,20.41
2023-03-17T15:19:42.925Z,20.52
2023-03-17T15:22:44.729Z,20.80
2023-03-17T15:25:28.893Z,20.50
2023-03-17T15:27:55.955Z,20.45
2023-03-17T15:30:23.750Z,20.25
2023-03-17T15:32:53.007Z,20.31
2023-03-17T15:35:19.653Z,20.18
2023-03-17T15:37:46.443Z,19.97
2023-03-17T15:40:13.881Z,19.95
2023-03-17T15:42:40.643Z,19.74
2023-03-17T15:45:07.875Z,20.01
2023-03-17T15:47:39.749Z,19.83
2023-03-17T15:50:24.263Z,20.00
2023-03-17T15:52:56.154Z,20.00
2023-03-17T15:55:25.278Z,20.10
2023-03-17T15:57:55.212Z,20.21
2023-03-17T16:00:23.904Z,20.50
2023-03-17T16:02:59.584Z,20.35
2023-03-17T16:05:29.205Z,20.72
2023-03-17T16:07:55.780Z,20.67
2023-03-17T16:10:23.591Z,20.53
2023-03-17T16:12:51.078Z,20.66
2023-03-17T16:15:23.717Z,20.42
2023-03-17T16:17:53.540Z,20.17
2023-03-17T16:20:24.428Z,19.43
2023-03-17T16:22:53.160Z,19.80
2023-03-17T16:25:24.845Z,19.07
2023-03-17T16:27:52.766Z,18.83
2023-03-17T16:30:28.309Z,19.17
2023-03-17T16:33:00.268Z,18.85
2023-03-17T16:35:26.873Z,18.74
2023-03-17T16:37:56.707Z,18.13
2023-03-17T16:40:33.119Z,18.25
2023-03-17T16:43:00.135Z,17.68
2023-03-17T16:45:29.339Z,17.91
2023-03-17T16:47:57.088Z,17.63
2023-03-17T16:50:26.508Z,17.62
2023-03-17T16:52:53.607Z,17.36
2023-03-17T16:55:21.315Z,16.98
2023-03-17T16:57:50.585Z,17.11
2023-03-17T17:00:25.012Z,17.16
2023-03-17T17:02:52.654Z,17.04
2023-03-17T17:05:28.302Z,16.90
2023-03-17T17:07:59.239Z,16.74
2023-03-17T17:10:28.116Z,16.66
2023-03-17T17:12:54.654Z,16.65
2023-03-17T17:15:22.596Z,16.38
2023-03-17T17:17:52.197Z,16.50
2023-03-17T17:20:23.179Z,15.62
2023-03-17T17:22:49.883Z,15.77
2023-03-17T17:25:17.645Z,16.31
2023-03-17T17:27:45.677Z,16.07
2023-03-17T17:30:17.095Z,15.95
2023-03-17T17:32:44.979Z,15.72
2023-03-17T17:35:12.640Z,15.99
2023-03-17T17:37:39.629Z,15.77
2023-03-17T17:40:08.710Z,15.27
2023-03-17T17:42:36.052Z,15.51
2023-03-17T17:45:02.709Z,15.47
2023-03-17T17:47:32.241Z,14.91
2023-03-17T17:49:59.625Z,15.07
2023-03-17T17:52:26.302Z,14.77
2023-03-17T17:54:52.851Z,15.14
2023-03-17T17:57:19.427Z,14.94
2023-03-17T17:59:46.012Z,14.98
2023-03-17T18:02:13.422Z,14.38
2023-03-17T18:04:40.210Z,14.34
2023-03-17T18:07:07.493Z,14.62
2023-03-17T18:09:34.017Z,14.18
2023-03-17T18:12:00.561Z,14.25
2023-03-17T18:14:27.684Z,14.72
2023-03-17T18:16:54.294Z,14.70
2023-03-17T18:19:21.125Z,14.71
2023-03-17T18:21:47.807Z,14.87
2023-03-17T18:24:14.810Z,14.45
2023-03-17T18:26:41.726Z,14.95
2023-03-17T18:29:09.423Z,15.07
2023-03-17T18:31:46.286Z,15.14
2023-03-17T18:34:20.049Z,14.80
2023-03-17T18:36:47.990Z,15.08
2023-03-17T18:39:16.024Z,15.25
2023-03-17T18:41:44.124Z,15.32
2023-03-17T18:44:11.337Z,15.32
2023-03-17T18:46:38.357Z,14.65
2023-03-17T18:49:06.388Z,14.76
2023-03-17T18:51:33.654Z,14.81
2023-03-17T18:54:00.756Z,15.13
2023-03-17T18:56:29.536Z,15.05
2023-03-17T18:58:57.207Z,15.07
2023-03-17T19:01:24.009Z,14.89
2023-03-17T19:03:50.801Z,14.46
2023-03-17T19:06:20.766Z,14.79
2023-03-17T19:08:48.028Z,14.69
2023-03-17T19:11:16.876Z,14.42
2023-03-17T19:13:45.744Z,14.14
2023-03-17T19:16:14.337Z,14.51
2023-03-17T19:18:42.490Z,14.72
2023-03-17T19:21:10.410Z,14.61
2023-03-17T19:23:39.252Z,14.23
2023-03-17T19:26:06.539Z,14.23
2023-03-17T19:28:34.424Z,14.50
2023-03-17T19:31:02.556Z,14.36
2023-03-17T19:33:30.129Z,14.41
2023-03-17T19:36:00.169Z,14.08
2023-03-17T19:38:27.722Z,13.97
2023-03-17T19:40:55.886Z,13.92
2023-03-17T19:43:39.497Z,14.11
2023-03-17T19:46:07.948Z,13.44
2023-03-17T19:48:36.369Z,13.44
2023-03-17T19:51:03.200Z,13.66
2023-03-17T19:53:29.915Z,14.05
2023-03-17T19:55:56.898Z,14.13
2023-03-17T19:58:24.120Z,13.37
2023-03-17T20:00:51.425Z,13.98
2023-03-17T20:03:18.019Z,13.87
2023-03-17T20:05:46.160Z,14.08
2023-03-17T20:08:12.888Z,14.19
2023-03-17T20:10:39.497Z,13.81
2023-03-17T20:13:06.365Z,13.87
2023-03-17T20:15:33.709Z,14.17
2023-03-17T20:18:00.743Z,14.25
2023-03-17T20:20:28.645Z,14.31
2023-03-17T20:22:56.374Z,14.11
2023-03-17T20:25:24.082Z,14.20
2023-03-17T20:27:52.033Z,14.43
2023-03-17T20:30:19.895Z,14.40
2023-03-17T20:32:47.508Z,14.42
2023-03-17T20:35:15.761Z,14.09
2023-03-17T20:37:43.138Z,13.82
2023-03-17T20:40:11.343Z,14.20
2023-03-17T20:42:39.120Z,14.20
2023-03-17T20:45:07.641Z,14.20
2023-03-17T20:47:34.825Z,14.12
2023-03-17T20:50:01.610Z,14.33
2023-03-17T20:52:30.095Z,14.31
2023-03-17T20:54:59.306Z,13.90
2023-03-17T20:57:26.310Z,14.28
2023-03-17T20:59:52.967Z,14.11
2023-03-17T21:02:19.548Z,14.18
2023-03-17T21:04:48.752Z,14.27
2023-03-17T21:07:17.205Z,13.82
2023-03-17T21:09:44.899Z,14.13
2023-03-17T21:12:18.083Z,14.22
2023-03-17T21:14:46.514Z,13.81
2023-03-17T21:17:13.067Z,14.15
2023-03-17T21:19:40.497Z,14.20
2023-03-17T21:22:07.629Z,14.09
2023-03-17T21:24:37.020Z,13.67
2023-03-17T21:27:05.786Z,14.21
2023-03-17T21:29:34.015Z,14.12
2023-03-17T21:32:01.944Z,14.10
2023-03-17T21:34:30.639Z,13.94
2023-03-17T21:36:58.233Z,14.06
2023-03-17T21:39:28.091Z,13.72
2023-03-17T21:41:56.146Z,14.15
2023-03-17T21:44:22.774Z,13.68
2023-03-17T21:46:49.927Z,14.16
2023-03-17T21:49:18.684Z,13.95
2023-03-17T21:51:48.726Z,14.12
2023-03-17T21:54:20.292Z,14.10
2023-03-17T21:56:59.831Z,13.92
2023-03-17T21:59:31.284Z,14.11
2023-03-17T22:02:03.754Z,14.12
2023-03-17T22:04:32.859Z,14.02
2023-03-17T22:07:00.636Z,13.59
2023-03-17T22:09:27.669Z,13.58
2023-03-17T22:11:55.004Z,13.52
2023-03-17T22:14:22.434Z,13.79
2023-03-17T22:16:49.487Z,13.90
2023-03-17T22:19:18.168Z,14.02
2023-03-17T22:21:46.068Z,13.60
2023-03-17T22:24:12.869Z,14.03
2023-03-17T22:26:39.477Z,13.51
2023-03-17T22:29:06.253Z,14.05
2023-03-17T22:31:34.634Z,13.99
2023-03-17T22:34:02.159Z,14.06
2023-03-17T22:36:30.143Z,13.67
2023-03-17T22:38:58.485Z,13.84
2023-03-17T22:41:29.133Z,13.47
2023-03-17T22:43:56.781Z,13.46
2023-03-17T22:46:24.153Z,13.31
2023-03-17T22:48:51.727Z,13.66
2023-03-17T22:51:24.230Z,13.67
2023-03-17T22:53:51.298Z,13.14
2023-03-17T22:56:19.305Z,13.08
2023-03-17T22:58:47.209Z,13.28
2023-03-17T23:01:16.448Z,12.96
2023-03-17T23:03:43.934Z,13.45
2023-03-17T23:06:13.034Z,13.41
2023-03-17T23:08:42.686Z,12.85
2023-03-17T23:11:23.054Z,13.12
2023-03-17T23:13:51.321Z,13.21
2023-03-17T23:16:18.964Z,12.82
2023-03-17T23:18:46.983Z,12.91
2023-03-17T23:21:27.709Z,13.06
2023-03-17T23:23:54.447Z,12.90
2023-03-17T23:26:21.284Z,12.75
2023-03-17T23:28:47.900Z,13.04
2023-03-17T23:31:16.601Z,13.13
2023-03-17T23:33:43.768Z,12.86
2023-03-17T23:36:10.785Z,12.90
2023-03-17T23:38:37.413Z,13.04
2023-03-17T23:41:06.427Z,13.09
2023-03-17T23:43:34.052Z,13.03
2023-03-17T23:46:01.270Z,13.02
2023-03-17T23:48:28.328Z,12.82
2023-03-17T23:50:55.011Z,12.78
2023-03-17T23:53:23.987Z,12.74
2023-03-17T23:55:51.355Z,12.77
2023-03-17T23:58:18.556Z,12.22
